BAW145 LKPR-EGLL
Flight info
| Callsign | BAW145 |
|---|---|
| Flight time | 1h 39m |
| Altitude | 36000 |
| Route | BALTU DCT DONAD DCT RAPET Z93 KODUK DCT MASEK DCT ARPEG DCT ABNED L980 LOGAN |
| Aircraft | A320/M-SDE3FGHIRWY/LB1 |
Departure
| Time | 2026-05-05 17:53 |
|---|---|
| Airport | Václav Havel Airport Prague (LKPR) |
Arrival
| Time | 2026-05-05 19:32 |
|---|---|
| Airport | London Heathrow Airport (EGLL) |
| Time | Latitude | Longitude | Altitude | Speed | Heading |
|---|---|---|---|---|---|
| 2026-05-05 17:28 | 50.10896 | 14.26640 | 1177 ft | 0 kts | 214° |
| 2026-05-05 17:42 | 50.10897 | 14.26640 | 1204 ft | 1 kts | 214° |
| 2026-05-05 17:42 | 50.10913 | 14.26658 | 1172 ft | 3 kts | 224° |
| 2026-05-05 17:42 | 50.10927 | 14.26684 | 1174 ft | 3 kts | 248° |
| 2026-05-05 17:42 | 50.10929 | 14.26713 | 1172 ft | 3 kts | 298° |
| 2026-05-05 17:43 | 50.10924 | 14.26727 | 1172 ft | 1 kts | 311° |
| 2026-05-05 17:43 | 50.10923 | 14.26728 | 1172 ft | 0 kts | 311° |
| 2026-05-05 17:47 | 50.10934 | 14.26708 | 1172 ft | 5 kts | 311° |
| 2026-05-05 17:47 | 50.10971 | 14.26642 | 1177 ft | 10 kts | 311° |
| 2026-05-05 17:47 | 50.11022 | 14.26551 | 1175 ft | 14 kts | 311° |
| 2026-05-05 17:48 | 50.11078 | 14.26413 | 1172 ft | 15 kts | 284° |
| 2026-05-05 17:48 | 50.11078 | 14.26259 | 1170 ft | 15 kts | 254° |
| 2026-05-05 17:48 | 50.11031 | 14.26097 | 1169 ft | 18 kts | 244° |
| 2026-05-05 17:48 | 50.10968 | 14.25923 | 1169 ft | 16 kts | 227° |
| 2026-05-05 17:49 | 50.10883 | 14.25831 | 1170 ft | 14 kts | 212° |
| 2026-05-05 17:49 | 50.10805 | 14.25735 | 1172 ft | 14 kts | 212° |
| 2026-05-05 17:49 | 50.10724 | 14.25655 | 1176 ft | 14 kts | 213° |
| 2026-05-05 17:49 | 50.10646 | 14.25574 | 1177 ft | 13 kts | 217° |
| 2026-05-05 17:50 | 50.10595 | 14.25452 | 1175 ft | 15 kts | 253° |
| 2026-05-05 17:50 | 50.10575 | 14.25293 | 1171 ft | 11 kts | 260° |
| 2026-05-05 17:50 | 50.10574 | 14.25286 | 1172 ft | 0 kts | 259° |
| 2026-05-05 17:51 | 50.10574 | 14.25285 | 1172 ft | 1 kts | 259° |
| 2026-05-05 17:51 | 50.10559 | 14.25201 | 1169 ft | 15 kts | 243° |
| 2026-05-05 17:51 | 50.10481 | 14.25195 | 1173 ft | 13 kts | 131° |
| 2026-05-05 17:52 | 50.10412 | 14.25339 | 1178 ft | 34 kts | 127° |
| 2026-05-05 17:52 | 50.10133 | 14.25920 | 1191 ft | 97 kts | 127° |
| 2026-05-05 17:52 | 50.09629 | 14.26968 | 1217 ft | 143 kts | 127° |
| 2026-05-05 17:52 | 50.08955 | 14.28284 | 1466 ft | 166 kts | 130° |
| 2026-05-05 17:53 | 50.08101 | 14.29654 | 1859 ft | 186 kts | 133° |
| 2026-05-05 17:53 | 50.07128 | 14.31083 | 2419 ft | 195 kts | 128° |
| 2026-05-05 17:53 | 50.06281 | 14.32828 | 2798 ft | 212 kts | 122° |
| 2026-05-05 17:53 | 50.05434 | 14.34837 | 3147 ft | 234 kts | 121° |
| 2026-05-05 17:54 | 50.04495 | 14.37060 | 3618 ft | 256 kts | 122° |
| 2026-05-05 17:54 | 50.03473 | 14.39387 | 4445 ft | 263 kts | 123° |
| 2026-05-05 17:54 | 50.02411 | 14.41719 | 4823 ft | 264 kts | 125° |
| 2026-05-05 17:54 | 50.01326 | 14.44030 | 5388 ft | 266 kts | 126° |
| 2026-05-05 17:55 | 50.00491 | 14.46578 | 6339 ft | 268 kts | 105° |
| 2026-05-05 17:55 | 50.00398 | 14.49499 | 7174 ft | 277 kts | 81° |
| 2026-05-05 17:55 | 50.01137 | 14.52253 | 7963 ft | 287 kts | 55° |
| 2026-05-05 17:55 | 50.02618 | 14.54400 | 8755 ft | 295 kts | 37° |
| 2026-05-05 17:56 | 50.04308 | 14.56331 | 9565 ft | 301 kts | 37° |
| 2026-05-05 17:56 | 50.06002 | 14.58261 | 10081 ft | 315 kts | 37° |
| 2026-05-05 17:56 | 50.07844 | 14.60326 | 10310 ft | 339 kts | 32° |
| 2026-05-05 17:56 | 50.10087 | 14.61722 | 10576 ft | 358 kts | 9° |
| 2026-05-05 17:57 | 50.12588 | 14.61656 | 11169 ft | 363 kts | 346° |
| 2026-05-05 17:57 | 50.14883 | 14.60091 | 11839 ft | 363 kts | 322° |
| 2026-05-05 17:57 | 50.16596 | 14.57250 | 12530 ft | 361 kts | 298° |
| 2026-05-05 17:57 | 50.17450 | 14.53607 | 13207 ft | 360 kts | 275° |
| 2026-05-05 17:58 | 50.17584 | 14.49699 | 13870 ft | 361 kts | 269° |
| 2026-05-05 17:58 | 50.17642 | 14.45756 | 14445 ft | 364 kts | 269° |
| 2026-05-05 17:58 | 50.17693 | 14.41789 | 15072 ft | 367 kts | 269° |
| 2026-05-05 17:58 | 50.17744 | 14.37787 | 15572 ft | 370 kts | 269° |
| 2026-05-05 17:59 | 50.17797 | 14.33771 | 15716 ft | 370 kts | 269° |
| 2026-05-05 17:59 | 50.17853 | 14.29768 | 15739 ft | 371 kts | 269° |
| 2026-05-05 17:59 | 50.17910 | 14.25729 | 15995 ft | 373 kts | 269° |
| 2026-05-05 17:59 | 50.17969 | 14.21647 | 16677 ft | 375 kts | 269° |
| 2026-05-05 18:00 | 50.18027 | 14.17569 | 17310 ft | 378 kts | 269° |
| 2026-05-05 18:00 | 50.18084 | 14.13446 | 17951 ft | 381 kts | 269° |
| 2026-05-05 18:00 | 50.18139 | 14.09297 | 18530 ft | 384 kts | 269° |
| 2026-05-05 18:00 | 50.18196 | 14.05110 | 19113 ft | 387 kts | 269° |
| 2026-05-05 18:01 | 50.18251 | 14.00896 | 19723 ft | 390 kts | 268° |
| 2026-05-05 18:01 | 50.18302 | 13.96661 | 20330 ft | 392 kts | 268° |
| 2026-05-05 18:01 | 50.18348 | 13.92390 | 20906 ft | 395 kts | 268° |
| 2026-05-05 18:01 | 50.18394 | 13.88091 | 21464 ft | 397 kts | 268° |
| 2026-05-05 18:02 | 50.18440 | 13.83760 | 22001 ft | 400 kts | 268° |
| 2026-05-05 18:02 | 50.18483 | 13.79399 | 22511 ft | 403 kts | 267° |
| 2026-05-05 18:02 | 50.18525 | 13.75100 | 23018 ft | 406 kts | 267° |
| 2026-05-05 18:02 | 50.18567 | 13.70623 | 23491 ft | 408 kts | 267° |
| 2026-05-05 18:03 | 50.18608 | 13.66180 | 23910 ft | 411 kts | 267° |
| 2026-05-05 18:03 | 50.18652 | 13.61697 | 24320 ft | 413 kts | 267° |
| 2026-05-05 18:03 | 50.18694 | 13.57220 | 24727 ft | 415 kts | 267° |
| 2026-05-05 18:03 | 50.18732 | 13.52708 | 25117 ft | 417 kts | 267° |
| 2026-05-05 18:04 | 50.18767 | 13.48181 | 25506 ft | 419 kts | 267° |
| 2026-05-05 18:04 | 50.18797 | 13.43627 | 25883 ft | 421 kts | 267° |
| 2026-05-05 18:04 | 50.18825 | 13.39112 | 26266 ft | 423 kts | 267° |
| 2026-05-05 18:04 | 50.18850 | 13.34509 | 26649 ft | 425 kts | 267° |
| 2026-05-05 18:05 | 50.18876 | 13.29832 | 27027 ft | 427 kts | 267° |
| 2026-05-05 18:05 | 50.18902 | 13.25192 | 27396 ft | 429 kts | 267° |
| 2026-05-05 18:05 | 50.18929 | 13.20588 | 27782 ft | 431 kts | 267° |
| 2026-05-05 18:05 | 50.18954 | 13.15912 | 28145 ft | 433 kts | 267° |
| 2026-05-05 18:06 | 50.18975 | 13.11199 | 28543 ft | 435 kts | 267° |
| 2026-05-05 18:06 | 50.18987 | 13.08010 | 28794 ft | 436 kts | 267° |
| 2026-05-05 18:06 | 50.19010 | 13.01723 | 29314 ft | 437 kts | 267° |
| 2026-05-05 18:06 | 50.19028 | 12.97003 | 29837 ft | 435 kts | 267° |
| 2026-05-05 18:07 | 50.19044 | 12.92286 | 30291 ft | 434 kts | 267° |
| 2026-05-05 18:07 | 50.19055 | 12.87591 | 30710 ft | 433 kts | 267° |
| 2026-05-05 18:07 | 50.19064 | 12.82895 | 31145 ft | 432 kts | 267° |
| 2026-05-05 18:07 | 50.19071 | 12.78200 | 31599 ft | 430 kts | 267° |
| 2026-05-05 18:08 | 50.19080 | 12.73545 | 32047 ft | 429 kts | 267° |
| 2026-05-05 18:08 | 50.19089 | 12.68907 | 32509 ft | 427 kts | 267° |
| 2026-05-05 18:08 | 50.19093 | 12.64288 | 32964 ft | 426 kts | 267° |
| 2026-05-05 18:08 | 50.19093 | 12.59659 | 33432 ft | 424 kts | 267° |
| 2026-05-05 18:09 | 50.19092 | 12.55064 | 33841 ft | 424 kts | 267° |
| 2026-05-05 18:09 | 50.19088 | 12.50466 | 34208 ft | 423 kts | 267° |
| 2026-05-05 18:09 | 50.19083 | 12.45883 | 34580 ft | 423 kts | 267° |
| 2026-05-05 18:09 | 50.19074 | 12.41283 | 34843 ft | 424 kts | 267° |
| 2026-05-05 18:10 | 50.19062 | 12.36673 | 35133 ft | 425 kts | 266° |
| 2026-05-05 18:10 | 50.19048 | 12.32076 | 35453 ft | 425 kts | 266° |
| 2026-05-05 18:10 | 50.19034 | 12.27469 | 35689 ft | 425 kts | 266° |
| 2026-05-05 18:11 | 50.19002 | 12.18198 | 35791 ft | 428 kts | 266° |
| 2026-05-05 18:11 | 50.18964 | 12.08896 | 35807 ft | 429 kts | 266° |
| 2026-05-05 18:12 | 50.18921 | 11.99590 | 35841 ft | 429 kts | 266° |
| 2026-05-05 18:12 | 50.18864 | 11.90290 | 35834 ft | 433 kts | 266° |
| 2026-05-05 18:13 | 50.18796 | 11.80876 | 35834 ft | 435 kts | 266° |
| 2026-05-05 18:13 | 50.18882 | 11.71484 | 35830 ft | 436 kts | 268° |
| 2026-05-05 18:14 | 50.19072 | 11.61973 | 35826 ft | 436 kts | 268° |
| 2026-05-05 18:14 | 50.19225 | 11.52577 | 35827 ft | 436 kts | 268° |
| 2026-05-05 18:15 | 50.19335 | 11.43056 | 35816 ft | 436 kts | 267° |
| 2026-05-05 18:15 | 50.19432 | 11.33652 | 35801 ft | 437 kts | 267° |
| 2026-05-05 18:16 | 50.19526 | 11.24175 | 35809 ft | 437 kts | 267° |
| 2026-05-05 18:16 | 50.19616 | 11.14698 | 35809 ft | 437 kts | 267° |
| 2026-05-05 18:17 | 50.19695 | 11.05205 | 35852 ft | 437 kts | 267° |
| 2026-05-05 18:17 | 50.20281 | 10.95741 | 35827 ft | 444 kts | 281° |
| 2026-05-05 18:18 | 50.22765 | 10.86836 | 35818 ft | 454 kts | 299° |
| 2026-05-05 18:18 | 50.26156 | 10.78514 | 35812 ft | 454 kts | 298° |
| 2026-05-05 18:19 | 50.29525 | 10.70144 | 35811 ft | 455 kts | 298° |
| 2026-05-05 18:19 | 50.32885 | 10.61747 | 35825 ft | 455 kts | 298° |
| 2026-05-05 18:20 | 50.36247 | 10.53334 | 35806 ft | 456 kts | 298° |
| 2026-05-05 18:20 | 50.39616 | 10.44890 | 35805 ft | 457 kts | 298° |
| 2026-05-05 18:21 | 50.42984 | 10.36424 | 35806 ft | 458 kts | 298° |
| 2026-05-05 18:21 | 50.46339 | 10.27944 | 35825 ft | 458 kts | 298° |
| 2026-05-05 18:22 | 50.49663 | 10.19514 | 35828 ft | 458 kts | 298° |
| 2026-05-05 18:22 | 50.53012 | 10.11010 | 35825 ft | 458 kts | 298° |
| 2026-05-05 18:23 | 50.56357 | 10.02484 | 35817 ft | 458 kts | 298° |
| 2026-05-05 18:23 | 50.59699 | 9.93935 | 35818 ft | 458 kts | 297° |
| 2026-05-05 18:24 | 50.63028 | 9.85385 | 35816 ft | 458 kts | 298° |
| 2026-05-05 18:24 | 50.66363 | 9.76814 | 35823 ft | 459 kts | 298° |
| 2026-05-05 18:25 | 50.69687 | 9.68217 | 35820 ft | 460 kts | 297° |
| 2026-05-05 18:25 | 50.72903 | 9.59513 | 35818 ft | 457 kts | 291° |
| 2026-05-05 18:26 | 50.75134 | 9.50189 | 35815 ft | 454 kts | 286° |
| 2026-05-05 18:26 | 50.77259 | 9.40836 | 35814 ft | 454 kts | 286° |
| 2026-05-05 18:27 | 50.79380 | 9.31492 | 35830 ft | 455 kts | 285° |
| 2026-05-05 18:27 | 50.81509 | 9.22076 | 35824 ft | 455 kts | 285° |
| 2026-05-05 18:28 | 50.84708 | 9.07855 | 35823 ft | 455 kts | 285° |
| 2026-05-05 18:28 | 50.86812 | 8.98400 | 35825 ft | 456 kts | 285° |
| 2026-05-05 18:29 | 50.88918 | 8.88935 | 35823 ft | 456 kts | 285° |
| 2026-05-05 18:29 | 50.91000 | 8.79536 | 35828 ft | 455 kts | 285° |
| 2026-05-05 18:30 | 50.92983 | 8.69946 | 35828 ft | 454 kts | 283° |
| 2026-05-05 18:30 | 50.94790 | 8.60421 | 35832 ft | 454 kts | 282° |
| 2026-05-05 18:31 | 50.96586 | 8.50824 | 35858 ft | 454 kts | 283° |
| 2026-05-05 18:31 | 50.98409 | 8.41219 | 35844 ft | 455 kts | 283° |
| 2026-05-05 18:32 | 51.00244 | 8.31617 | 35847 ft | 455 kts | 283° |
| 2026-05-05 18:32 | 51.02073 | 8.22007 | 35838 ft | 455 kts | 283° |
| 2026-05-05 18:33 | 51.03887 | 8.12374 | 35839 ft | 455 kts | 283° |
| 2026-05-05 18:33 | 51.05696 | 8.02722 | 35863 ft | 456 kts | 283° |
| 2026-05-05 18:34 | 51.07498 | 7.93077 | 35847 ft | 455 kts | 283° |
| 2026-05-05 18:34 | 51.09286 | 7.83431 | 35857 ft | 454 kts | 282° |
| 2026-05-05 18:35 | 51.11058 | 7.73836 | 35854 ft | 454 kts | 282° |
| 2026-05-05 18:35 | 51.12829 | 7.64196 | 35846 ft | 453 kts | 282° |
| 2026-05-05 18:36 | 51.14592 | 7.54559 | 35848 ft | 454 kts | 282° |
| 2026-05-05 18:36 | 51.16040 | 7.46591 | 35853 ft | 454 kts | 282° |
| 2026-05-05 18:37 | 51.17782 | 7.36923 | 35844 ft | 455 kts | 282° |
| 2026-05-05 18:37 | 51.19519 | 7.27229 | 35842 ft | 455 kts | 282° |
| 2026-05-05 18:38 | 51.21256 | 7.17520 | 35856 ft | 455 kts | 282° |
| 2026-05-05 18:38 | 51.22992 | 7.07811 | 35866 ft | 455 kts | 282° |
| 2026-05-05 18:39 | 51.24715 | 6.98084 | 35861 ft | 456 kts | 282° |
| 2026-05-05 18:39 | 51.26426 | 6.88359 | 35857 ft | 456 kts | 282° |
| 2026-05-05 18:40 | 51.28138 | 6.78608 | 35856 ft | 456 kts | 282° |
| 2026-05-05 18:40 | 51.29834 | 6.68857 | 35869 ft | 455 kts | 282° |
| 2026-05-05 18:41 | 51.31520 | 6.59093 | 35863 ft | 456 kts | 282° |
| 2026-05-05 18:41 | 51.33203 | 6.49328 | 35882 ft | 456 kts | 282° |
| 2026-05-05 18:42 | 51.34878 | 6.39554 | 35882 ft | 456 kts | 282° |
| 2026-05-05 18:42 | 51.36542 | 6.29775 | 35884 ft | 456 kts | 282° |
| 2026-05-05 18:43 | 51.38204 | 6.19990 | 35893 ft | 456 kts | 282° |
| 2026-05-05 18:43 | 51.39845 | 6.10266 | 35892 ft | 455 kts | 281° |
| 2026-05-05 18:44 | 51.41482 | 6.00460 | 35893 ft | 455 kts | 281° |
| 2026-05-05 18:44 | 51.43107 | 5.90671 | 35893 ft | 455 kts | 281° |
| 2026-05-05 18:45 | 51.44733 | 5.80879 | 35891 ft | 454 kts | 281° |
| 2026-05-05 18:45 | 51.46344 | 5.71110 | 35901 ft | 453 kts | 281° |
| 2026-05-05 18:46 | 51.47938 | 5.61338 | 35894 ft | 452 kts | 281° |
| 2026-05-05 18:46 | 51.49522 | 5.51580 | 35889 ft | 452 kts | 281° |
| 2026-05-05 18:47 | 51.51103 | 5.41813 | 35888 ft | 452 kts | 281° |
| 2026-05-05 18:47 | 51.52679 | 5.32055 | 35886 ft | 451 kts | 281° |
| 2026-05-05 18:48 | 51.54229 | 5.22362 | 35899 ft | 451 kts | 281° |
| 2026-05-05 18:48 | 51.55785 | 5.12552 | 35918 ft | 450 kts | 281° |
| 2026-05-05 18:49 | 51.57311 | 5.02881 | 35915 ft | 449 kts | 281° |
| 2026-05-05 18:49 | 51.58839 | 4.93132 | 35913 ft | 449 kts | 281° |
| 2026-05-05 18:50 | 51.60366 | 4.83390 | 35912 ft | 449 kts | 281° |
| 2026-05-05 18:50 | 51.61883 | 4.73645 | 35917 ft | 449 kts | 281° |
| 2026-05-05 18:51 | 51.63393 | 4.63890 | 35909 ft | 449 kts | 281° |
| 2026-05-05 18:51 | 51.64882 | 4.54135 | 35908 ft | 449 kts | 281° |
| 2026-05-05 18:52 | 51.66362 | 4.44377 | 35901 ft | 448 kts | 281° |
| 2026-05-05 18:52 | 51.67837 | 4.34629 | 35898 ft | 448 kts | 281° |
| 2026-05-05 18:53 | 51.69312 | 4.24878 | 35899 ft | 448 kts | 280° |
| 2026-05-05 18:53 | 51.70768 | 4.15131 | 35896 ft | 447 kts | 280° |
| 2026-05-05 18:54 | 51.72214 | 4.05377 | 35894 ft | 447 kts | 280° |
| 2026-05-05 18:54 | 51.73661 | 3.95614 | 35891 ft | 447 kts | 280° |
| 2026-05-05 18:55 | 51.75095 | 3.85861 | 35924 ft | 447 kts | 280° |
| 2026-05-05 18:55 | 51.76519 | 3.76083 | 35920 ft | 447 kts | 280° |
| 2026-05-05 18:56 | 51.77928 | 3.66302 | 35928 ft | 447 kts | 280° |
| 2026-05-05 18:56 | 51.79335 | 3.56585 | 35928 ft | 447 kts | 280° |
| 2026-05-05 18:57 | 51.80751 | 3.46809 | 35934 ft | 447 kts | 279° |
| 2026-05-05 18:57 | 51.82143 | 3.37004 | 35946 ft | 447 kts | 279° |
| 2026-05-05 18:58 | 51.83509 | 3.27192 | 35953 ft | 448 kts | 279° |
| 2026-05-05 18:58 | 51.84639 | 3.17327 | 35947 ft | 443 kts | 270° |
| 2026-05-05 18:59 | 51.84297 | 3.07465 | 35941 ft | 439 kts | 261° |
| 2026-05-05 18:59 | 51.83654 | 2.97642 | 35944 ft | 439 kts | 261° |
| 2026-05-05 19:00 | 51.83019 | 2.87895 | 35956 ft | 439 kts | 261° |
| 2026-05-05 19:00 | 51.82365 | 2.78068 | 35950 ft | 439 kts | 261° |
| 2026-05-05 19:01 | 51.81695 | 2.68252 | 35955 ft | 440 kts | 261° |
| 2026-05-05 19:01 | 51.81019 | 2.58441 | 35947 ft | 440 kts | 261° |
| 2026-05-05 19:02 | 51.80333 | 2.48617 | 35955 ft | 440 kts | 261° |
| 2026-05-05 19:02 | 51.79990 | 2.43705 | 35782 ft | 440 kts | 261° |
| 2026-05-05 19:02 | 51.79646 | 2.38801 | 35537 ft | 440 kts | 261° |
| 2026-05-05 19:03 | 51.79300 | 2.33901 | 35272 ft | 439 kts | 260° |
| 2026-05-05 19:03 | 51.78946 | 2.28997 | 35033 ft | 440 kts | 260° |
| 2026-05-05 19:03 | 51.78585 | 2.24068 | 34554 ft | 444 kts | 260° |
| 2026-05-05 19:03 | 51.78239 | 2.19186 | 33664 ft | 449 kts | 260° |
| 2026-05-05 19:04 | 51.77924 | 2.14167 | 32688 ft | 452 kts | 261° |
| 2026-05-05 19:04 | 51.77636 | 2.09105 | 31761 ft | 453 kts | 262° |
| 2026-05-05 19:04 | 51.77361 | 2.04035 | 30848 ft | 454 kts | 262° |
| 2026-05-05 19:04 | 51.77084 | 1.98936 | 29751 ft | 458 kts | 262° |
| 2026-05-05 19:05 | 51.76794 | 1.93842 | 29100 ft | 450 kts | 262° |
| 2026-05-05 19:05 | 51.76499 | 1.88864 | 28509 ft | 443 kts | 262° |
| 2026-05-05 19:05 | 51.76198 | 1.83943 | 27874 ft | 437 kts | 262° |
| 2026-05-05 19:05 | 51.75896 | 1.79095 | 27247 ft | 432 kts | 262° |
| 2026-05-05 19:06 | 51.75594 | 1.74299 | 26632 ft | 427 kts | 263° |
| 2026-05-05 19:06 | 51.75296 | 1.69622 | 26021 ft | 423 kts | 263° |
| 2026-05-05 19:06 | 51.74997 | 1.64929 | 25428 ft | 419 kts | 263° |
| 2026-05-05 19:06 | 51.74703 | 1.60274 | 24828 ft | 415 kts | 263° |
| 2026-05-05 19:07 | 51.74413 | 1.55649 | 24212 ft | 415 kts | 264° |
| 2026-05-05 19:07 | 51.74120 | 1.51034 | 23594 ft | 413 kts | 264° |
| 2026-05-05 19:07 | 51.73823 | 1.46429 | 22902 ft | 410 kts | 264° |
| 2026-05-05 19:07 | 51.73527 | 1.41864 | 22297 ft | 407 kts | 264° |
| 2026-05-05 19:08 | 51.73235 | 1.37357 | 21687 ft | 405 kts | 264° |
| 2026-05-05 19:08 | 51.72940 | 1.32840 | 21083 ft | 403 kts | 264° |
| 2026-05-05 19:08 | 51.72645 | 1.28350 | 20482 ft | 402 kts | 264° |
| 2026-05-05 19:08 | 51.72350 | 1.23877 | 19884 ft | 401 kts | 264° |
| 2026-05-05 19:09 | 51.72052 | 1.19408 | 19282 ft | 401 kts | 264° |
| 2026-05-05 19:09 | 51.71753 | 1.14926 | 18680 ft | 400 kts | 264° |
| 2026-05-05 19:09 | 51.71455 | 1.10470 | 18053 ft | 400 kts | 264° |
| 2026-05-05 19:09 | 51.71155 | 1.06021 | 17425 ft | 398 kts | 264° |
| 2026-05-05 19:10 | 51.70856 | 1.01653 | 17155 ft | 386 kts | 263° |
| 2026-05-05 19:10 | 51.70559 | 0.97400 | 16705 ft | 379 kts | 263° |
| 2026-05-05 19:10 | 51.70264 | 0.93205 | 16171 ft | 374 kts | 264° |
| 2026-05-05 19:10 | 51.69974 | 0.89050 | 15634 ft | 370 kts | 264° |
| 2026-05-05 19:11 | 51.69687 | 0.84941 | 15090 ft | 367 kts | 264° |
| 2026-05-05 19:11 | 51.69406 | 0.80887 | 14567 ft | 363 kts | 264° |
| 2026-05-05 19:11 | 51.69123 | 0.76848 | 14049 ft | 361 kts | 264° |
| 2026-05-05 19:11 | 51.68841 | 0.72845 | 13555 ft | 359 kts | 264° |
| 2026-05-05 19:12 | 51.68559 | 0.68868 | 13011 ft | 356 kts | 264° |
| 2026-05-05 19:12 | 51.68278 | 0.64938 | 12492 ft | 351 kts | 264° |
| 2026-05-05 19:12 | 51.68000 | 0.61056 | 11981 ft | 347 kts | 264° |
| 2026-05-05 19:12 | 51.67722 | 0.57211 | 11471 ft | 343 kts | 264° |
| 2026-05-05 19:13 | 51.67450 | 0.53461 | 10982 ft | 340 kts | 264° |
| 2026-05-05 19:13 | 51.67178 | 0.49699 | 10492 ft | 337 kts | 265° |
| 2026-05-05 19:13 | 51.66906 | 0.45961 | 10003 ft | 334 kts | 265° |
| 2026-05-05 19:13 | 51.66634 | 0.42270 | 9486 ft | 331 kts | 265° |
| 2026-05-05 19:14 | 51.66361 | 0.38586 | 9026 ft | 327 kts | 265° |
| 2026-05-05 19:14 | 51.66095 | 0.35031 | 8925 ft | 312 kts | 265° |
| 2026-05-05 19:14 | 51.65843 | 0.31657 | 8948 ft | 295 kts | 265° |
| 2026-05-05 19:14 | 51.65602 | 0.28456 | 8946 ft | 285 kts | 265° |
| 2026-05-05 19:15 | 51.65373 | 0.25297 | 8949 ft | 284 kts | 266° |
| 2026-05-05 19:15 | 51.65174 | 0.22144 | 8953 ft | 283 kts | 266° |
| 2026-05-05 19:15 | 51.64976 | 0.18992 | 8955 ft | 283 kts | 266° |
| 2026-05-05 19:15 | 51.64784 | 0.15841 | 8956 ft | 283 kts | 266° |
| 2026-05-05 19:16 | 51.64592 | 0.12716 | 8946 ft | 283 kts | 266° |
| 2026-05-05 19:16 | 51.64403 | 0.09557 | 8946 ft | 283 kts | 266° |
| 2026-05-05 19:16 | 51.64213 | 0.06397 | 8954 ft | 283 kts | 266° |
| 2026-05-05 19:16 | 51.64019 | 0.03240 | 8945 ft | 283 kts | 266° |
| 2026-05-05 19:17 | 51.63828 | 0.00127 | 8932 ft | 283 kts | 266° |
| 2026-05-05 19:17 | 51.63631 | -0.03004 | 8847 ft | 274 kts | 266° |
| 2026-05-05 19:17 | 51.63463 | -0.05747 | 8735 ft | 265 kts | 266° |
| 2026-05-05 19:17 | 51.63286 | -0.08588 | 8560 ft | 251 kts | 266° |
| 2026-05-05 19:18 | 51.63112 | -0.11320 | 8275 ft | 246 kts | 266° |
| 2026-05-05 19:18 | 51.62939 | -0.14044 | 8125 ft | 241 kts | 266° |
| 2026-05-05 19:18 | 51.62766 | -0.16758 | 8138 ft | 244 kts | 266° |
| 2026-05-05 19:18 | 51.62591 | -0.19477 | 8095 ft | 246 kts | 266° |
| 2026-05-05 19:19 | 51.62414 | -0.22208 | 8043 ft | 245 kts | 266° |
| 2026-05-05 19:19 | 51.62239 | -0.24934 | 8021 ft | 245 kts | 266° |
| 2026-05-05 19:19 | 51.62061 | -0.27655 | 8033 ft | 245 kts | 266° |
| 2026-05-05 19:19 | 51.61886 | -0.30385 | 8032 ft | 245 kts | 266° |
| 2026-05-05 19:20 | 51.61714 | -0.33103 | 7946 ft | 245 kts | 266° |
| 2026-05-05 19:20 | 51.61539 | -0.35830 | 7946 ft | 245 kts | 266° |
| 2026-05-05 19:20 | 51.61365 | -0.38551 | 7949 ft | 245 kts | 266° |
| 2026-05-05 19:20 | 51.61190 | -0.41282 | 7950 ft | 245 kts | 266° |
| 2026-05-05 19:21 | 51.61016 | -0.44000 | 7940 ft | 245 kts | 266° |
| 2026-05-05 19:21 | 51.60838 | -0.46727 | 7951 ft | 245 kts | 266° |
| 2026-05-05 19:21 | 51.60662 | -0.49456 | 7951 ft | 245 kts | 266° |
| 2026-05-05 19:21 | 51.60482 | -0.52186 | 7951 ft | 245 kts | 266° |
| 2026-05-05 19:22 | 51.60302 | -0.54901 | 7862 ft | 244 kts | 266° |
| 2026-05-05 19:22 | 51.60122 | -0.57602 | 7555 ft | 243 kts | 266° |
| 2026-05-05 19:22 | 51.59944 | -0.60310 | 7249 ft | 242 kts | 266° |
| 2026-05-05 19:22 | 51.59765 | -0.63003 | 6954 ft | 242 kts | 266° |
| 2026-05-05 19:23 | 51.59592 | -0.65672 | 6660 ft | 241 kts | 266° |
| 2026-05-05 19:23 | 51.59418 | -0.68352 | 6368 ft | 240 kts | 266° |
| 2026-05-05 19:23 | 51.59242 | -0.71014 | 6061 ft | 239 kts | 266° |
| 2026-05-05 19:23 | 51.59064 | -0.73703 | 5597 ft | 245 kts | 266° |
| 2026-05-05 19:24 | 51.58883 | -0.76465 | 5113 ft | 252 kts | 266° |
| 2026-05-05 19:24 | 51.58699 | -0.79303 | 4624 ft | 258 kts | 266° |
| 2026-05-05 19:24 | 51.58349 | -0.82133 | 4136 ft | 266 kts | 247° |
| 2026-05-05 19:24 | 51.57228 | -0.84418 | 3986 ft | 258 kts | 215° |
| 2026-05-05 19:25 | 51.55670 | -0.85428 | 3998 ft | 230 kts | 187° |
| 2026-05-05 19:25 | 51.54139 | -0.85648 | 4004 ft | 213 kts | 182° |
| 2026-05-05 19:25 | 51.52705 | -0.85755 | 4039 ft | 203 kts | 180° |
| 2026-05-05 19:25 | 51.51354 | -0.85348 | 4007 ft | 194 kts | 147° |
| 2026-05-05 19:26 | 51.50353 | -0.84073 | 3986 ft | 176 kts | 133° |
| 2026-05-05 19:26 | 51.49487 | -0.82716 | 3791 ft | 173 kts | 131° |
| 2026-05-05 19:26 | 51.48644 | -0.81354 | 3543 ft | 172 kts | 131° |
| 2026-05-05 19:26 | 51.47903 | -0.79876 | 3308 ft | 168 kts | 113° |
| 2026-05-05 19:27 | 51.47597 | -0.78132 | 3091 ft | 161 kts | 89° |
| 2026-05-05 19:27 | 51.47602 | -0.76345 | 3011 ft | 161 kts | 86° |
| 2026-05-05 19:27 | 51.47614 | -0.74537 | 3014 ft | 163 kts | 86° |
| 2026-05-05 19:27 | 51.47625 | -0.72716 | 2983 ft | 163 kts | 86° |
| 2026-05-05 19:28 | 51.47632 | -0.71516 | 2894 ft | 163 kts | 86° |
| 2026-05-05 19:28 | 51.47642 | -0.69696 | 2707 ft | 162 kts | 86° |
| 2026-05-05 19:28 | 51.47653 | -0.67890 | 2497 ft | 161 kts | 87° |
| 2026-05-05 19:28 | 51.47663 | -0.66105 | 2287 ft | 160 kts | 87° |
| 2026-05-05 19:29 | 51.47673 | -0.64318 | 2071 ft | 160 kts | 87° |
| 2026-05-05 19:29 | 51.47683 | -0.62528 | 1848 ft | 160 kts | 87° |
| 2026-05-05 19:29 | 51.47692 | -0.60745 | 1636 ft | 159 kts | 88° |
| 2026-05-05 19:29 | 51.47701 | -0.58970 | 1416 ft | 159 kts | 88° |
| 2026-05-05 19:30 | 51.47709 | -0.57209 | 1196 ft | 158 kts | 88° |
| 2026-05-05 19:30 | 51.47717 | -0.55505 | 1001 ft | 144 kts | 88° |
| 2026-05-05 19:30 | 51.47724 | -0.53949 | 791 ft | 136 kts | 88° |
| 2026-05-05 19:30 | 51.47731 | -0.52448 | 609 ft | 133 kts | 87° |
| 2026-05-05 19:31 | 51.47737 | -0.50958 | 431 ft | 133 kts | 87° |
| 2026-05-05 19:31 | 51.47746 | -0.49486 | 260 ft | 132 kts | 86° |
| 2026-05-05 19:31 | 51.47747 | -0.48027 | 113 ft | 132 kts | 87° |
| 2026-05-05 19:31 | 51.47765 | -0.46729 | 89 ft | 93 kts | 89° |
| 2026-05-05 19:32 | 51.47766 | -0.45919 | 85 ft | 62 kts | 89° |
| 2026-05-05 19:32 | 51.47808 | -0.45412 | 87 ft | 38 kts | 85° |
| 2026-05-05 19:32 | 51.47729 | -0.45188 | 88 ft | 14 kts | 146° |
| 2026-05-05 19:32 | 51.47691 | -0.45153 | 88 ft | 7 kts | 154° |
| 2026-05-05 19:33 | 51.47603 | -0.45230 | 89 ft | 15 kts | 256° |
| 2026-05-05 19:33 | 51.47596 | -0.45407 | 89 ft | 21 kts | 270° |
| 2026-05-05 19:33 | 51.47597 | -0.45585 | 86 ft | 15 kts | 270° |
| 2026-05-05 19:33 | 51.47595 | -0.45729 | 87 ft | 7 kts | 268° |
| 2026-05-05 19:34 | 51.47594 | -0.45824 | 86 ft | 9 kts | 269° |
| 2026-05-05 19:34 | 51.47592 | -0.45928 | 86 ft | 8 kts | 268° |
| 2026-05-05 19:34 | 51.47593 | -0.46026 | 86 ft | 9 kts | 270° |
| 2026-05-05 19:35 | 51.47592 | -0.46291 | 86 ft | 15 kts | 269° |
| 2026-05-05 19:35 | 51.47591 | -0.46473 | 86 ft | 18 kts | 269° |
| 2026-05-05 19:35 | 51.47591 | -0.46689 | 86 ft | 20 kts | 270° |
| 2026-05-05 19:35 | 51.47584 | -0.46921 | 90 ft | 22 kts | 268° |
| 2026-05-05 19:36 | 51.47581 | -0.47147 | 90 ft | 15 kts | 269° |
| 2026-05-05 19:36 | 51.47581 | -0.47321 | 90 ft | 17 kts | 271° |
| 2026-05-05 19:36 | 51.47581 | -0.47522 | 90 ft | 19 kts | 269° |
| 2026-05-05 19:36 | 51.47579 | -0.47757 | 90 ft | 23 kts | 269° |
| 2026-05-05 19:37 | 51.47579 | -0.48003 | 88 ft | 20 kts | 270° |
| 2026-05-05 19:37 | 51.47578 | -0.48219 | 89 ft | 20 kts | 268° |
| 2026-05-05 19:37 | 51.47577 | -0.48388 | 86 ft | 12 kts | 269° |
| 2026-05-05 19:37 | 51.47529 | -0.48475 | 88 ft | 13 kts | 189° |
| 2026-05-05 19:38 | 51.47435 | -0.48470 | 89 ft | 13 kts | 178° |
| 2026-05-05 19:38 | 51.47340 | -0.48473 | 90 ft | 14 kts | 181° |
| 2026-05-05 19:38 | 51.47261 | -0.48471 | 86 ft | 10 kts | 179° |
| 2026-05-05 19:38 | 51.47233 | -0.48516 | 88 ft | 1 kts | 263° |
| 2026-05-05 19:39 | 51.47232 | -0.48548 | 86 ft | 4 kts | 267° |
| 2026-05-05 19:39 | 51.47233 | -0.48559 | 86 ft | 2 kts | 272° |
| 2026-05-05 19:39 | 51.47233 | -0.48581 | 86 ft | 1 kts | 270° |
| 2026-05-05 19:39 | 51.47233 | -0.48585 | 91 ft | 0 kts | 270° |